Salinas Municipal Airport
KSNS : rendu visible

Aérodrome :











RETROUVEZ-NOUS SUR...

 
LOGIN :

S'inscrire | Disclaimer

   EN    FR    IT 

 









Légende :    VFR   VFR Marginal   IFR   IFR Intensif   IFR Très Intensif
Visi : 
Plafond : 
>= 8 km
>= 3000ft
5 à 8 km
1000 à 3000 ft
1500m à 5 km
500 à 1000 ft
800 à 1500m
200 à 500 ft
< 800m
< 200 ft
Symboles :   Orages  Brouillard  Fortes neiges  Fortes précipitations  Vent > 20 kt






- Altitude de l'aérodrome : 85 ft


KSNS - Salinas Municipal

DERNIER METAR :
  • 200353Z AUTO 27015G22KT 10SM SCT017 OVC033 13/09 A2965 RMK AO2 SLP049 T01330094

METARs EXPIRÉS :
  • 200333Z AUTO 28013KT 10SM FEW017 BKN031 13/09 A2967 RMK AO2 T01330094
  • 200312Z AUTO 29013KT 10SM BKN029 13/09 A2967 RMK AO2 T01280094
  • 200253Z AUTO 28012G23KT 10SM FEW027 13/09 A2968 RMK AO2 SLP059 T01330094 58017
  • 200244Z 29014KT 10SM SCT027 13/09 A2968 RMK AO2 T01330094
  • 200228Z 29014KT 10SM FEW016 OVC028 13/09 A2970 RMK AO2 T01330094
  • 200153Z 29015G21KT 10SM FEW014 SCT033 13/10 A2971 RMK AO2 SLP068 T01330100

TAF KSNS
Valide du 20 à 03h jusqu'au 21 à 00h UTC


200323Z 2003/2024 27014KT P6SM BKN030
TEMPO 2003/2005 -RA OVC030
FM200500 27012KT P6SM -RA OVC025
FM201000 27010KT P6SM OVC025
FM201900 29014G20KT P6SM SKC



MET'MAP, la Météo Aéronautique d'un coup d'oeil ! - Copyright ORBIFLY Décembre 2007 - Disclaimer

ORBIFLY MET'MAP TEAM :

Programmation & Développement : Alexandra Zaïnal
Conception & Développement : Baudouin d'Aumeries
Co-Programmation & Développement : Marc-Olivier Méhu
Soutien technique & logistique : Manuel Goepfert

Contact : metmap@orbifly.com




SOURCES & CREDITS :

   NOAA       Earth
Advisory